sensor_id;sensor_type;location;lat;lon;timestamp;P1;durP1;ratioP1;P2;durP2;ratioP2
29724;SDS011;16636;48.394;15.468;2023-02-15T00:02:25;48.42;;;19.25;;
29724;SDS011;16636;48.394;15.468;2023-02-15T00:04:52;45.95;;;18.88;;
29724;SDS011;16636;48.394;15.468;2023-02-15T00:07:19;48.45;;;20.02;;
29724;SDS011;16636;48.394;15.468;2023-02-15T00:09:47;48.38;;;20.20;;
29724;SDS011;16636;48.394;15.468;2023-02-15T00:15:08;44.70;;;19.33;;
29724;SDS011;16636;48.394;15.468;2023-02-15T00:17:34;43.65;;;17.77;;
29724;SDS011;16636;48.394;15.468;2023-02-15T00:20:00;44.45;;;18.45;;
29724;SDS011;16636;48.394;15.468;2023-02-15T00:22:27;46.28;;;18.77;;
29724;SDS011;16636;48.394;15.468;2023-02-15T00:24:53;53.83;;;20.10;;
29724;SDS011;16636;48.394;15.468;2023-02-15T00:27:19;46.95;;;18.92;;
29724;SDS011;16636;48.394;15.468;2023-02-15T00:29:46;43.83;;;17.73;;
29724;SDS011;16636;48.394;15.468;2023-02-15T00:32:14;41.83;;;18.15;;
29724;SDS011;16636;48.394;15.468;2023-02-15T00:34:40;48.03;;;19.33;;
29724;SDS011;16636;48.394;15.468;2023-02-15T00:37:06;43.13;;;19.17;;
29724;SDS011;16636;48.394;15.468;2023-02-15T00:39:32;49.58;;;19.95;;
29724;SDS011;16636;48.394;15.468;2023-02-15T00:41:58;42.88;;;18.83;;
29724;SDS011;16636;48.394;15.468;2023-02-15T00:44:25;51.53;;;19.42;;
29724;SDS011;16636;48.394;15.468;2023-02-15T00:46:52;45.15;;;19.20;;
29724;SDS011;16636;48.394;15.468;2023-02-15T00:49:19;47.03;;;19.70;;
29724;SDS011;16636;48.394;15.468;2023-02-15T00:51:45;44.05;;;18.83;;
29724;SDS011;16636;48.394;15.468;2023-02-15T00:54:12;45.75;;;19.90;;
29724;SDS011;16636;48.394;15.468;2023-02-15T00:56:38;52.20;;;19.05;;
29724;SDS011;16636;48.394;15.468;2023-02-15T00:59:04;38.58;;;17.25;;
29724;SDS011;16636;48.394;15.468;2023-02-15T01:01:31;52.78;;;19.08;;
29724;SDS011;16636;48.394;15.468;2023-02-15T01:03:58;49.00;;;18.98;;
29724;SDS011;16636;48.394;15.468;2023-02-15T01:06:24;50.45;;;20.27;;
29724;SDS011;16636;48.394;15.468;2023-02-15T01:08:50;46.80;;;19.00;;
29724;SDS011;16636;48.394;15.468;2023-02-15T01:11:17;42.92;;;17.67;;
29724;SDS011;16636;48.394;15.468;2023-02-15T01:13:48;47.70;;;19.38;;
29724;SDS011;16636;48.394;15.468;2023-02-15T01:16:15;43.75;;;17.60;;
29724;SDS011;16636;48.394;15.468;2023-02-15T01:18:41;48.10;;;18.60;;
29724;SDS011;16636;48.394;15.468;2023-02-15T01:21:15;49.53;;;17.52;;
29724;SDS011;16636;48.394;15.468;2023-02-15T01:23:43;39.42;;;17.90;;
29724;SDS011;16636;48.394;15.468;2023-02-15T01:26:11;45.35;;;18.48;;
29724;SDS011;16636;48.394;15.468;2023-02-15T01:28:39;44.42;;;17.60;;
29724;SDS011;16636;48.394;15.468;2023-02-15T01:31:13;42.53;;;17.63;;
29724;SDS011;16636;48.394;15.468;2023-02-15T01:33:44;40.45;;;17.30;;
29724;SDS011;16636;48.394;15.468;2023-02-15T01:36:11;36.53;;;15.25;;
29724;SDS011;16636;48.394;15.468;2023-02-15T01:38:37;36.85;;;15.65;;
29724;SDS011;16636;48.394;15.468;2023-02-15T01:41:05;37.25;;;15.50;;
29724;SDS011;16636;48.394;15.468;2023-02-15T01:43:56;32.40;;;14.48;;
29724;SDS011;16636;48.394;15.468;2023-02-15T01:46:47;28.10;;;13.15;;
29724;SDS011;16636;48.394;15.468;2023-02-15T01:49:26;35.03;;;15.05;;
29724;SDS011;16636;48.394;15.468;2023-02-15T01:51:53;40.63;;;14.70;;
29724;SDS011;16636;48.394;15.468;2023-02-15T01:54:24;29.42;;;13.00;;
29724;SDS011;16636;48.394;15.468;2023-02-15T01:57:07;36.80;;;15.80;;
29724;SDS011;16636;48.394;15.468;2023-02-15T01:59:38;34.58;;;14.50;;
29724;SDS011;16636;48.394;15.468;2023-02-15T02:02:09;31.33;;;14.15;;
29724;SDS011;16636;48.394;15.468;2023-02-15T02:07:12;33.38;;;13.25;;
29724;SDS011;16636;48.394;15.468;2023-02-15T02:09:41;31.92;;;13.88;;
29724;SDS011;16636;48.394;15.468;2023-02-15T02:12:07;37.67;;;14.80;;
29724;SDS011;16636;48.394;15.468;2023-02-15T02:14:34;41.05;;;16.40;;
29724;SDS011;16636;48.394;15.468;2023-02-15T02:28:01;37.83;;;13.80;;
29724;SDS011;16636;48.394;15.468;2023-02-15T02:30:56;31.38;;;12.10;;
29724;SDS011;16636;48.394;15.468;2023-02-15T02:33:31;35.58;;;14.85;;
29724;SDS011;16636;48.394;15.468;2023-02-15T02:41:36;33.35;;;12.88;;
29724;SDS011;16636;48.394;15.468;2023-02-15T02:44:13;39.55;;;14.00;;
29724;SDS011;16636;48.394;15.468;2023-02-15T02:49:41;34.47;;;14.98;;
29724;SDS011;16636;48.394;15.468;2023-02-15T02:54:59;34.38;;;14.02;;
29724;SDS011;16636;48.394;15.468;2023-02-15T02:57:27;32.47;;;13.52;;
29724;SDS011;16636;48.394;15.468;2023-02-15T02:59:55;35.08;;;13.27;;
29724;SDS011;16636;48.394;15.468;2023-02-15T03:02:24;39.03;;;15.52;;
29724;SDS011;16636;48.394;15.468;2023-02-15T03:04:58;40.10;;;15.68;;
29724;SDS011;16636;48.394;15.468;2023-02-15T03:07:29;34.33;;;15.10;;
29724;SDS011;16636;48.394;15.468;2023-02-15T03:09:58;39.45;;;16.00;;
29724;SDS011;16636;48.394;15.468;2023-02-15T03:12:34;32.50;;;15.15;;
29724;SDS011;16636;48.394;15.468;2023-02-15T03:15:04;33.38;;;14.25;;
29724;SDS011;16636;48.394;15.468;2023-02-15T03:17:35;36.67;;;14.43;;
29724;SDS011;16636;48.394;15.468;2023-02-15T03:20:09;35.85;;;15.10;;
29724;SDS011;16636;48.394;15.468;2023-02-15T03:22:50;34.22;;;13.32;;
29724;SDS011;16636;48.394;15.468;2023-02-15T03:25:21;30.50;;;12.75;;
29724;SDS011;16636;48.394;15.468;2023-02-15T03:27:54;31.30;;;13.98;;
29724;SDS011;16636;48.394;15.468;2023-02-15T03:30:26;31.85;;;13.23;;
29724;SDS011;16636;48.394;15.468;2023-02-15T03:32:56;33.92;;;15.43;;
29724;SDS011;16636;48.394;15.468;2023-02-15T03:35:25;34.00;;;14.43;;
29724;SDS011;16636;48.394;15.468;2023-02-15T03:37:59;35.33;;;14.18;;
29724;SDS011;16636;48.394;15.468;2023-02-15T03:40:30;39.33;;;15.95;;
29724;SDS011;16636;48.394;15.468;2023-02-15T03:45:57;33.03;;;14.65;;
29724;SDS011;16636;48.394;15.468;2023-02-15T03:48:32;34.80;;;14.43;;
29724;SDS011;16636;48.394;15.468;2023-02-15T03:51:08;42.28;;;16.83;;
29724;SDS011;16636;48.394;15.468;2023-02-15T03:53:58;41.33;;;14.95;;
29724;SDS011;16636;48.394;15.468;2023-02-15T03:56:36;34.97;;;14.48;;
29724;SDS011;16636;48.394;15.468;2023-02-15T03:59:05;36.20;;;15.57;;
29724;SDS011;16636;48.394;15.468;2023-02-15T04:04:42;35.53;;;15.18;;
29724;SDS011;16636;48.394;15.468;2023-02-15T04:07:11;38.20;;;15.57;;
29724;SDS011;16636;48.394;15.468;2023-02-15T04:09:37;38.80;;;16.70;;
29724;SDS011;16636;48.394;15.468;2023-02-15T04:12:21;33.47;;;16.02;;
29724;SDS011;16636;48.394;15.468;2023-02-15T04:14:48;35.25;;;15.00;;
29724;SDS011;16636;48.394;15.468;2023-02-15T04:17:32;36.45;;;15.95;;
29724;SDS011;16636;48.394;15.468;2023-02-15T04:19:59;34.72;;;14.77;;
29724;SDS011;16636;48.394;15.468;2023-02-15T04:22:43;33.95;;;14.18;;
29724;SDS011;16636;48.394;15.468;2023-02-15T04:25:28;39.42;;;16.60;;
29724;SDS011;16636;48.394;15.468;2023-02-15T04:27:54;35.28;;;13.30;;
29724;SDS011;16636;48.394;15.468;2023-02-15T04:30:22;37.08;;;14.10;;
29724;SDS011;16636;48.394;15.468;2023-02-15T04:32:50;39.63;;;14.45;;
29724;SDS011;16636;48.394;15.468;2023-02-15T04:35:17;32.35;;;13.35;;
29724;SDS011;16636;48.394;15.468;2023-02-15T04:37:43;37.95;;;15.85;;
29724;SDS011;16636;48.394;15.468;2023-02-15T04:40:11;29.20;;;13.40;;
29724;SDS011;16636;48.394;15.468;2023-02-15T04:42:38;39.13;;;15.10;;
29724;SDS011;16636;48.394;15.468;2023-02-15T04:45:04;42.58;;;15.75;;
29724;SDS011;16636;48.394;15.468;2023-02-15T04:47:31;33.53;;;13.95;;
29724;SDS011;16636;48.394;15.468;2023-02-15T04:49:57;41.60;;;14.80;;
29724;SDS011;16636;48.394;15.468;2023-02-15T04:52:23;40.28;;;15.35;;
29724;SDS011;16636;48.394;15.468;2023-02-15T04:54:49;40.30;;;15.38;;
29724;SDS011;16636;48.394;15.468;2023-02-15T04:57:15;33.55;;;14.88;;
29724;SDS011;16636;48.394;15.468;2023-02-15T04:59:42;35.65;;;15.90;;
29724;SDS011;16636;48.394;15.468;2023-02-15T05:02:08;39.22;;;14.18;;
29724;SDS011;16636;48.394;15.468;2023-02-15T05:04:34;35.10;;;13.98;;
29724;SDS011;16636;48.394;15.468;2023-02-15T05:07:00;38.30;;;15.50;;
29724;SDS011;16636;48.394;15.468;2023-02-15T05:09:26;39.35;;;15.13;;
29724;SDS011;16636;48.394;15.468;2023-02-15T05:11:52;38.15;;;14.27;;
29724;SDS011;16636;48.394;15.468;2023-02-15T05:14:17;36.47;;;15.90;;
29724;SDS011;16636;48.394;15.468;2023-02-15T05:16:43;34.10;;;14.82;;
29724;SDS011;16636;48.394;15.468;2023-02-15T05:19:10;39.30;;;15.68;;
29724;SDS011;16636;48.394;15.468;2023-02-15T05:21:36;38.13;;;15.45;;
29724;SDS011;16636;48.394;15.468;2023-02-15T05:24:02;36.25;;;14.60;;
29724;SDS011;16636;48.394;15.468;2023-02-15T05:26:48;35.47;;;15.57;;
29724;SDS011;16636;48.394;15.468;2023-02-15T05:29:32;32.05;;;14.85;;
29724;SDS011;16636;48.394;15.468;2023-02-15T05:31:58;40.53;;;16.20;;
29724;SDS011;16636;48.394;15.468;2023-02-15T05:34:24;38.25;;;15.05;;
29724;SDS011;16636;48.394;15.468;2023-02-15T05:36:50;40.85;;;16.10;;
29724;SDS011;16636;48.394;15.468;2023-02-15T05:39:16;38.33;;;14.82;;
29724;SDS011;16636;48.394;15.468;2023-02-15T05:41:42;31.95;;;15.85;;
29724;SDS011;16636;48.394;15.468;2023-02-15T05:44:08;38.28;;;14.82;;
29724;SDS011;16636;48.394;15.468;2023-02-15T05:46:34;40.28;;;16.98;;
29724;SDS011;16636;48.394;15.468;2023-02-15T05:49:00;33.90;;;13.98;;
29724;SDS011;16636;48.394;15.468;2023-02-15T05:51:26;34.20;;;14.77;;
29724;SDS011;16636;48.394;15.468;2023-02-15T05:53:52;35.22;;;14.18;;
29724;SDS011;16636;48.394;15.468;2023-02-15T05:56:17;38.65;;;16.17;;
29724;SDS011;16636;48.394;15.468;2023-02-15T05:58:43;36.50;;;15.45;;
29724;SDS011;16636;48.394;15.468;2023-02-15T06:01:14;36.10;;;15.88;;
29724;SDS011;16636;48.394;15.468;2023-02-15T06:03:42;36.42;;;13.85;;
29724;SDS011;16636;48.394;15.468;2023-02-15T06:06:08;36.95;;;14.82;;
29724;SDS011;16636;48.394;15.468;2023-02-15T06:08:35;35.47;;;14.93;;
29724;SDS011;16636;48.394;15.468;2023-02-15T06:11:03;33.90;;;13.55;;
29724;SDS011;16636;48.394;15.468;2023-02-15T06:13:30;35.40;;;15.38;;
29724;SDS011;16636;48.394;15.468;2023-02-15T06:15:56;41.47;;;17.42;;
29724;SDS011;16636;48.394;15.468;2023-02-15T06:18:22;34.88;;;14.82;;
29724;SDS011;16636;48.394;15.468;2023-02-15T06:20:48;37.33;;;15.75;;
29724;SDS011;16636;48.394;15.468;2023-02-15T06:23:14;33.63;;;13.63;;
29724;SDS011;16636;48.394;15.468;2023-02-15T06:25:41;34.35;;;14.98;;
29724;SDS011;16636;48.394;15.468;2023-02-15T06:28:07;36.63;;;15.43;;
29724;SDS011;16636;48.394;15.468;2023-02-15T06:30:33;36.45;;;14.95;;
29724;SDS011;16636;48.394;15.468;2023-02-15T06:32:59;34.47;;;16.17;;
29724;SDS011;16636;48.394;15.468;2023-02-15T06:35:25;35.30;;;15.68;;
29724;SDS011;16636;48.394;15.468;2023-02-15T06:37:51;36.72;;;15.85;;
29724;SDS011;16636;48.394;15.468;2023-02-15T06:40:17;33.42;;;14.30;;
29724;SDS011;16636;48.394;15.468;2023-02-15T06:42:43;39.13;;;16.30;;
29724;SDS011;16636;48.394;15.468;2023-02-15T06:45:09;40.17;;;16.88;;
29724;SDS011;16636;48.394;15.468;2023-02-15T06:47:36;34.55;;;15.82;;
29724;SDS011;16636;48.394;15.468;2023-02-15T06:50:03;45.28;;;17.20;;
29724;SDS011;16636;48.394;15.468;2023-02-15T06:52:30;43.30;;;17.30;;
29724;SDS011;16636;48.394;15.468;2023-02-15T06:54:56;39.33;;;17.10;;
29724;SDS011;16636;48.394;15.468;2023-02-15T06:57:22;37.92;;;16.65;;
29724;SDS011;16636;48.394;15.468;2023-02-15T06:59:48;36.33;;;16.00;;
29724;SDS011;16636;48.394;15.468;2023-02-15T07:02:14;36.33;;;17.00;;
29724;SDS011;16636;48.394;15.468;2023-02-15T07:04:40;38.25;;;15.85;;
29724;SDS011;16636;48.394;15.468;2023-02-15T07:07:10;39.08;;;16.50;;
29724;SDS011;16636;48.394;15.468;2023-02-15T07:09:37;36.85;;;15.68;;
29724;SDS011;16636;48.394;15.468;2023-02-15T07:12:03;39.33;;;15.57;;
29724;SDS011;16636;48.394;15.468;2023-02-15T07:14:48;32.83;;;13.85;;
29724;SDS011;16636;48.394;15.468;2023-02-15T07:17:14;32.92;;;15.18;;
29724;SDS011;16636;48.394;15.468;2023-02-15T07:19:40;32.80;;;15.30;;
29724;SDS011;16636;48.394;15.468;2023-02-15T07:22:06;34.15;;;13.88;;
29724;SDS011;16636;48.394;15.468;2023-02-15T07:24:32;38.15;;;17.23;;
29724;SDS011;16636;48.394;15.468;2023-02-15T07:26:58;37.20;;;16.88;;
29724;SDS011;16636;48.394;15.468;2023-02-15T07:29:24;44.25;;;18.02;;
29724;SDS011;16636;48.394;15.468;2023-02-15T07:31:50;45.17;;;18.77;;
29724;SDS011;16636;48.394;15.468;2023-02-15T07:34:16;39.88;;;17.88;;
29724;SDS011;16636;48.394;15.468;2023-02-15T07:36:42;45.33;;;19.83;;
29724;SDS011;16636;48.394;15.468;2023-02-15T07:39:11;41.30;;;18.75;;
29724;SDS011;16636;48.394;15.468;2023-02-15T07:41:37;42.63;;;18.33;;
29724;SDS011;16636;48.394;15.468;2023-02-15T07:44:13;46.25;;;18.92;;
29724;SDS011;16636;48.394;15.468;2023-02-15T07:46:40;41.17;;;19.08;;
29724;SDS011;16636;48.394;15.468;2023-02-15T07:49:06;52.13;;;19.67;;
29724;SDS011;16636;48.394;15.468;2023-02-15T07:51:32;38.60;;;17.65;;
29724;SDS011;16636;48.394;15.468;2023-02-15T07:53:58;40.75;;;19.50;;
29724;SDS011;16636;48.394;15.468;2023-02-15T07:56:24;48.97;;;20.20;;
29724;SDS011;16636;48.394;15.468;2023-02-15T07:58:50;43.75;;;19.77;;
29724;SDS011;16636;48.394;15.468;2023-02-15T08:01:21;48.85;;;19.90;;
29724;SDS011;16636;48.394;15.468;2023-02-15T08:03:47;40.10;;;19.05;;
29724;SDS011;16636;48.394;15.468;2023-02-15T08:06:13;42.58;;;18.90;;
29724;SDS011;16636;48.394;15.468;2023-02-15T08:08:40;47.20;;;19.90;;
29724;SDS011;16636;48.394;15.468;2023-02-15T08:11:15;41.75;;;18.10;;
29724;SDS011;16636;48.394;15.468;2023-02-15T08:18:50;38.10;;;17.95;;
29724;SDS011;16636;48.394;15.468;2023-02-15T08:21:17;36.35;;;16.73;;
29724;SDS011;16636;48.394;15.468;2023-02-15T08:23:43;45.20;;;18.13;;
29724;SDS011;16636;48.394;15.468;2023-02-15T08:26:09;37.58;;;17.67;;
29724;SDS011;16636;48.394;15.468;2023-02-15T08:28:35;46.75;;;21.00;;
29724;SDS011;16636;48.394;15.468;2023-02-15T08:31:08;52.85;;;22.30;;
29724;SDS011;16636;48.394;15.468;2023-02-15T08:33:37;46.05;;;19.95;;
29724;SDS011;16636;48.394;15.468;2023-02-15T08:36:14;46.50;;;19.85;;
29724;SDS011;16636;48.394;15.468;2023-02-15T08:38:42;53.30;;;22.08;;
29724;SDS011;16636;48.394;15.468;2023-02-15T08:41:16;44.85;;;20.23;;
29724;SDS011;16636;48.394;15.468;2023-02-15T08:43:45;44.92;;;19.25;;
29724;SDS011;16636;48.394;15.468;2023-02-15T08:46:16;37.63;;;18.58;;
29724;SDS011;16636;48.394;15.468;2023-02-15T08:48:43;43.67;;;18.02;;
29724;SDS011;16636;48.394;15.468;2023-02-15T08:51:14;43.08;;;19.48;;
29724;SDS011;16636;48.394;15.468;2023-02-15T08:53:49;42.28;;;18.15;;
29724;SDS011;16636;48.394;15.468;2023-02-15T08:56:20;37.05;;;17.45;;
29724;SDS011;16636;48.394;15.468;2023-02-15T08:58:47;50.75;;;20.85;;
29724;SDS011;16636;48.394;15.468;2023-02-15T09:01:15;43.25;;;18.95;;
29724;SDS011;16636;48.394;15.468;2023-02-15T09:03:46;46.47;;;18.48;;
29724;SDS011;16636;48.394;15.468;2023-02-15T09:06:14;40.63;;;18.08;;
29724;SDS011;16636;48.394;15.468;2023-02-15T09:08:41;40.08;;;17.80;;
29724;SDS011;16636;48.394;15.468;2023-02-15T09:11:11;33.42;;;16.75;;
29724;SDS011;16636;48.394;15.468;2023-02-15T09:13:42;40.55;;;16.98;;
29724;SDS011;16636;48.394;15.468;2023-02-15T09:16:08;41.63;;;17.67;;
29724;SDS011;16636;48.394;15.468;2023-02-15T09:18:36;42.97;;;19.40;;
29724;SDS011;16636;48.394;15.468;2023-02-15T09:21:07;37.13;;;16.52;;
29724;SDS011;16636;48.394;15.468;2023-02-15T09:23:34;37.75;;;17.50;;
29724;SDS011;16636;48.394;15.468;2023-02-15T09:26:01;41.15;;;18.95;;
29724;SDS011;16636;48.394;15.468;2023-02-15T09:28:29;43.85;;;18.23;;
29724;SDS011;16636;48.394;15.468;2023-02-15T09:30:55;38.38;;;17.52;;
29724;SDS011;16636;48.394;15.468;2023-02-15T09:33:21;39.92;;;18.52;;
29724;SDS011;16636;48.394;15.468;2023-02-15T09:35:50;33.22;;;15.82;;
29724;SDS011;16636;48.394;15.468;2023-02-15T09:38:16;39.35;;;18.92;;
29724;SDS011;16636;48.394;15.468;2023-02-15T09:40:44;35.50;;;16.30;;
29724;SDS011;16636;48.394;15.468;2023-02-15T09:43:30;39.85;;;19.08;;
29724;SDS011;16636;48.394;15.468;2023-02-15T09:48:46;34.58;;;15.70;;
29724;SDS011;16636;48.394;15.468;2023-02-15T09:53:58;34.97;;;17.02;;
29724;SDS011;16636;48.394;15.468;2023-02-15T09:57:37;36.47;;;17.73;;
29724;SDS011;16636;48.394;15.468;2023-02-15T09:59:41;44.55;;;20.15;;
29724;SDS011;16636;48.394;15.468;2023-02-15T10:05:31;39.42;;;16.05;;
29724;SDS011;16636;48.394;15.468;2023-02-15T10:17:15;42.00;;;17.95;;
29724;SDS011;16636;48.394;15.468;2023-02-15T10:28:28;33.53;;;16.15;;
29724;SDS011;16636;48.394;15.468;2023-02-15T10:31:17;34.00;;;16.45;;
29724;SDS011;16636;48.394;15.468;2023-02-15T10:34:12;37.72;;;16.65;;
29724;SDS011;16636;48.394;15.468;2023-02-15T10:36:52;38.05;;;16.00;;
29724;SDS011;16636;48.394;15.468;2023-02-15T10:39:40;36.13;;;17.08;;
29724;SDS011;16636;48.394;15.468;2023-02-15T10:42:17;50.00;;;19.50;;
29724;SDS011;16636;48.394;15.468;2023-02-15T10:44:58;39.65;;;18.48;;
29724;SDS011;16636;48.394;15.468;2023-02-15T10:53:23;60.08;;;23.35;;
29724;SDS011;16636;48.394;15.468;2023-02-15T11:06:38;44.33;;;17.65;;
29724;SDS011;16636;48.394;15.468;2023-02-15T11:09:10;42.47;;;18.48;;
29724;SDS011;16636;48.394;15.468;2023-02-15T11:11:38;39.88;;;18.90;;
29724;SDS011;16636;48.394;15.468;2023-02-15T11:14:13;36.95;;;16.40;;
29724;SDS011;16636;48.394;15.468;2023-02-15T11:16:46;39.92;;;16.73;;
29724;SDS011;16636;48.394;15.468;2023-02-15T11:19:24;49.60;;;20.92;;
29724;SDS011;16636;48.394;15.468;2023-02-15T11:22:04;37.70;;;16.08;;
29724;SDS011;16636;48.394;15.468;2023-02-15T11:24:32;40.95;;;18.35;;
29724;SDS011;16636;48.394;15.468;2023-02-15T11:27:05;35.90;;;17.30;;
29724;SDS011;16636;48.394;15.468;2023-02-15T11:29:38;52.13;;;23.23;;
29724;SDS011;16636;48.394;15.468;2023-02-15T11:35:04;36.95;;;16.00;;
29724;SDS011;16636;48.394;15.468;2023-02-15T11:40:02;34.95;;;16.48;;
29724;SDS011;16636;48.394;15.468;2023-02-15T11:42:37;35.60;;;16.63;;
29724;SDS011;16636;48.394;15.468;2023-02-15T11:45:06;38.72;;;16.70;;
29724;SDS011;16636;48.394;15.468;2023-02-15T11:47:47;38.20;;;17.08;;
29724;SDS011;16636;48.394;15.468;2023-02-15T11:50:18;37.65;;;16.58;;
29724;SDS011;16636;48.394;15.468;2023-02-15T11:52:49;31.85;;;14.50;;
29724;SDS011;16636;48.394;15.468;2023-02-15T11:55:21;37.75;;;15.32;;
29724;SDS011;16636;48.394;15.468;2023-02-15T11:57:54;34.88;;;15.10;;
29724;SDS011;16636;48.394;15.468;2023-02-15T12:00:37;33.92;;;15.15;;
29724;SDS011;16636;48.394;15.468;2023-02-15T12:03:51;44.67;;;16.88;;
29724;SDS011;16636;48.394;15.468;2023-02-15T12:06:13;33.92;;;16.45;;
29724;SDS011;16636;48.394;15.468;2023-02-15T12:09:05;38.10;;;16.65;;
29724;SDS011;16636;48.394;15.468;2023-02-15T12:11:42;38.63;;;17.40;;
29724;SDS011;16636;48.394;15.468;2023-02-15T12:14:09;37.45;;;15.80;;
29724;SDS011;16636;48.394;15.468;2023-02-15T12:16:47;37.38;;;15.70;;
29724;SDS011;16636;48.394;15.468;2023-02-15T12:19:24;37.05;;;15.85;;
29724;SDS011;16636;48.394;15.468;2023-02-15T12:21:58;36.35;;;16.55;;
29724;SDS011;16636;48.394;15.468;2023-02-15T12:24:30;41.22;;;18.15;;
29724;SDS011;16636;48.394;15.468;2023-02-15T12:27:02;36.10;;;16.48;;
29724;SDS011;16636;48.394;15.468;2023-02-15T12:29:33;44.45;;;17.00;;
29724;SDS011;16636;48.394;15.468;2023-02-15T12:32:19;34.95;;;15.57;;
29724;SDS011;16636;48.394;15.468;2023-02-15T12:34:49;41.03;;;17.35;;
29724;SDS011;16636;48.394;15.468;2023-02-15T12:37:21;35.17;;;16.45;;
29724;SDS011;16636;48.394;15.468;2023-02-15T12:39:52;33.88;;;15.82;;
29724;SDS011;16636;48.394;15.468;2023-02-15T12:42:23;37.00;;;18.13;;
29724;SDS011;16636;48.394;15.468;2023-02-15T12:44:54;52.10;;;22.20;;
29724;SDS011;16636;48.394;15.468;2023-02-15T12:47:26;44.15;;;16.52;;
29724;SDS011;16636;48.394;15.468;2023-02-15T12:50:12;39.38;;;17.65;;
29724;SDS011;16636;48.394;15.468;2023-02-15T12:52:44;35.08;;;15.88;;
29724;SDS011;16636;48.394;15.468;2023-02-15T12:55:23;36.88;;;16.48;;
29724;SDS011;16636;48.394;15.468;2023-02-15T12:58:07;33.70;;;15.90;;
29724;SDS011;16636;48.394;15.468;2023-02-15T13:00:44;42.83;;;19.02;;
29724;SDS011;16636;48.394;15.468;2023-02-15T13:03:20;42.88;;;18.98;;
29724;SDS011;16636;48.394;15.468;2023-02-15T13:05:53;46.58;;;18.88;;
29724;SDS011;16636;48.394;15.468;2023-02-15T13:08:22;50.67;;;21.70;;
29724;SDS011;16636;48.394;15.468;2023-02-15T13:11:08;45.00;;;19.67;;
29724;SDS011;16636;48.394;15.468;2023-02-15T13:13:53;109.40;;;40.03;;
29724;SDS011;16636;48.394;15.468;2023-02-15T13:16:24;48.63;;;21.25;;
29724;SDS011;16636;48.394;15.468;2023-02-15T13:18:56;75.88;;;31.40;;
29724;SDS011;16636;48.394;15.468;2023-02-15T13:21:29;46.40;;;20.15;;
29724;SDS011;16636;48.394;15.468;2023-02-15T13:24:06;38.53;;;17.85;;
29724;SDS011;16636;48.394;15.468;2023-02-15T13:26:42;38.47;;;16.77;;
29724;SDS011;16636;48.394;15.468;2023-02-15T13:29:18;52.15;;;22.60;;
29724;SDS011;16636;48.394;15.468;2023-02-15T13:31:50;40.55;;;18.90;;
29724;SDS011;16636;48.394;15.468;2023-02-15T13:34:22;45.90;;;19.25;;
29724;SDS011;16636;48.394;15.468;2023-02-15T13:37:11;39.30;;;17.55;;
29724;SDS011;16636;48.394;15.468;2023-02-15T13:39:48;42.85;;;18.33;;
29724;SDS011;16636;48.394;15.468;2023-02-15T13:42:20;34.00;;;16.70;;
29724;SDS011;16636;48.394;15.468;2023-02-15T13:48:50;37.92;;;17.55;;
29724;SDS011;16636;48.394;15.468;2023-02-15T13:51:49;48.88;;;17.98;;
29724;SDS011;16636;48.394;15.468;2023-02-15T13:54:27;41.45;;;17.65;;
29724;SDS011;16636;48.394;15.468;2023-02-15T14:10:51;40.22;;;18.00;;
29724;SDS011;16636;48.394;15.468;2023-02-15T14:26:47;38.47;;;16.27;;
29724;SDS011;16636;48.394;15.468;2023-02-15T14:29:27;45.35;;;18.38;;
29724;SDS011;16636;48.394;15.468;2023-02-15T14:32:13;43.53;;;17.08;;
29724;SDS011;16636;48.394;15.468;2023-02-15T14:34:48;44.55;;;19.35;;
29724;SDS011;16636;48.394;15.468;2023-02-15T14:37:24;40.97;;;18.35;;
29724;SDS011;16636;48.394;15.468;2023-02-15T14:39:59;38.28;;;17.75;;
29724;SDS011;16636;48.394;15.468;2023-02-15T14:46:10;47.58;;;18.75;;
29724;SDS011;16636;48.394;15.468;2023-02-15T14:48:17;45.92;;;20.55;;
29724;SDS011;16636;48.394;15.468;2023-02-15T14:50:46;41.42;;;17.83;;
29724;SDS011;16636;48.394;15.468;2023-02-15T14:58:35;42.20;;;18.80;;
29724;SDS011;16636;48.394;15.468;2023-02-15T15:01:28;37.47;;;17.95;;
29724;SDS011;16636;48.394;15.468;2023-02-15T15:03:58;45.60;;;19.60;;
29724;SDS011;16636;48.394;15.468;2023-02-15T15:06:31;49.42;;;18.25;;
29724;SDS011;16636;48.394;15.468;2023-02-15T15:09:00;41.88;;;17.92;;
29724;SDS011;16636;48.394;15.468;2023-02-15T15:11:45;40.22;;;17.15;;
29724;SDS011;16636;48.394;15.468;2023-02-15T15:16:58;54.03;;;20.83;;
29724;SDS011;16636;48.394;15.468;2023-02-15T15:22:21;43.28;;;18.25;;
29724;SDS011;16636;48.394;15.468;2023-02-15T15:24:50;35.35;;;18.15;;
29724;SDS011;16636;48.394;15.468;2023-02-15T15:27:39;37.70;;;17.55;;
29724;SDS011;16636;48.394;15.468;2023-02-15T15:32:41;40.38;;;18.45;;
29724;SDS011;16636;48.394;15.468;2023-02-15T15:38:38;39.67;;;18.25;;
29724;SDS011;16636;48.394;15.468;2023-02-15T15:41:56;40.65;;;17.25;;
29724;SDS011;16636;48.394;15.468;2023-02-15T15:44:31;41.75;;;17.30;;
29724;SDS011;16636;48.394;15.468;2023-02-15T15:50:18;46.88;;;19.50;;
29724;SDS011;16636;48.394;15.468;2023-02-15T15:52:49;35.92;;;15.70;;
29724;SDS011;16636;48.394;15.468;2023-02-15T15:55:19;35.28;;;16.30;;
29724;SDS011;16636;48.394;15.468;2023-02-15T15:57:49;39.97;;;17.13;;
29724;SDS011;16636;48.394;15.468;2023-02-15T16:00:35;42.45;;;17.20;;
29724;SDS011;16636;48.394;15.468;2023-02-15T16:03:01;36.65;;;16.52;;
29724;SDS011;16636;48.394;15.468;2023-02-15T16:05:34;80.20;;;28.90;;
29724;SDS011;16636;48.394;15.468;2023-02-15T16:08:01;51.00;;;21.83;;
29724;SDS011;16636;48.394;15.468;2023-02-15T16:10:28;42.55;;;18.75;;
29724;SDS011;16636;48.394;15.468;2023-02-15T16:12:57;43.20;;;16.73;;
29724;SDS011;16636;48.394;15.468;2023-02-15T16:15:25;36.63;;;16.98;;
29724;SDS011;16636;48.394;15.468;2023-02-15T16:18:04;50.63;;;21.45;;
29724;SDS011;16636;48.394;15.468;2023-02-15T16:20:31;56.30;;;24.45;;
29724;SDS011;16636;48.394;15.468;2023-02-15T16:28:53;102.70;;;35.28;;
29724;SDS011;16636;48.394;15.468;2023-02-15T16:31:20;78.45;;;30.67;;
29724;SDS011;16636;48.394;15.468;2023-02-15T16:33:47;83.50;;;33.35;;
29724;SDS011;16636;48.394;15.468;2023-02-15T16:36:21;79.55;;;30.10;;
29724;SDS011;16636;48.394;15.468;2023-02-15T16:41:21;64.35;;;24.75;;
29724;SDS011;16636;48.394;15.468;2023-02-15T16:43:52;54.83;;;23.15;;
29724;SDS011;16636;48.394;15.468;2023-02-15T16:46:27;53.30;;;22.60;;
29724;SDS011;16636;48.394;15.468;2023-02-15T16:49:02;50.20;;;20.27;;
29724;SDS011;16636;48.394;15.468;2023-02-15T16:51:32;39.97;;;17.70;;
29724;SDS011;16636;48.394;15.468;2023-02-15T16:54:03;47.50;;;18.80;;
29724;SDS011;16636;48.394;15.468;2023-02-15T16:56:33;38.45;;;17.58;;
29724;SDS011;16636;48.394;15.468;2023-02-15T16:59:02;61.65;;;27.90;;
29724;SDS011;16636;48.394;15.468;2023-02-15T17:01:29;70.22;;;30.83;;
29724;SDS011;16636;48.394;15.468;2023-02-15T17:04:13;75.32;;;33.92;;